Ducklington, United Kingdom
Current Conditions -  °F | °C
As of 11:50 AM on Thursday 30 Oct 2014 (Local Time) from EGVN Reporting Station
Broken Clouds Broken Clouds  
Wind Chill: 63°   Ceiling: 1600
Heat Index: 63°   Visibility: 6mi
Dew Point: 57°   Wind: 10mph
Humidity: 82%   Direction: 200°SSW
Pressure: 30.03"   Gusts: NA
Location:  51.77°N, 1.48°W
Report Text: EGVN 301150Z 20009KT 9999 BKN016 17/14 Q1017 NOSIG
Loading
Personal Weather Stations






























Interactive Weather Map
Tropical Storm Tracking
New forecast layout! Learn more

10-Day Weather Forecast

Advertisements
Track Severe Weather on mobile